createdAt,value
2022-10-03T00:01:25.552Z,101389.91
2022-10-03T00:04:54.662Z,101401.69
2022-10-03T00:08:07.480Z,101405.16
2022-10-03T00:11:22.966Z,101405.41
2022-10-03T00:14:35.824Z,101410.84
2022-10-03T00:17:47.463Z,101405.09
2022-10-03T00:21:04.005Z,101413.94
2022-10-03T00:24:17.632Z,101413.97
2022-10-03T00:27:31.606Z,101426.41
2022-10-03T00:30:59.005Z,101417.66
2022-10-03T00:34:13.057Z,101423.28
2022-10-03T00:37:28.491Z,101424.50
2022-10-03T00:40:41.022Z,101427.31
2022-10-03T00:44:25.115Z,101415.16
2022-10-03T00:47:57.094Z,101426.03
2022-10-03T00:51:24.016Z,101428.38
2022-10-03T00:54:44.422Z,101430.75
2022-10-03T00:58:07.354Z,101439.72
2022-10-03T01:01:24.673Z,101439.06
2022-10-03T01:04:45.085Z,101435.66
2022-10-03T01:08:08.383Z,101444.72
2022-10-03T01:11:24.997Z,101442.69
2022-10-03T01:14:49.222Z,101448.84
2022-10-03T01:18:07.987Z,101460.53
2022-10-03T01:21:19.695Z,101444.88
2022-10-03T01:24:51.641Z,101458.22
2022-10-03T01:28:20.841Z,101453.50
2022-10-03T01:31:32.056Z,101448.16
2022-10-03T01:34:43.509Z,101462.66
2022-10-03T01:37:55.591Z,101462.19
2022-10-03T01:41:03.195Z,101467.06
2022-10-03T01:44:14.564Z,101470.41
2022-10-03T01:47:27.367Z,101460.06
2022-10-03T01:50:36.434Z,101466.44
2022-10-03T01:54:00.035Z,101464.41
2022-10-03T01:57:12.321Z,101477.56
2022-10-03T02:00:18.895Z,101470.06
2022-10-03T02:03:29.489Z,101477.41
2022-10-03T02:06:43.374Z,101477.84
2022-10-03T02:09:58.766Z,101479.63
2022-10-03T02:13:09.488Z,101478.09
2022-10-03T02:16:18.851Z,101481.03
2022-10-03T02:19:27.342Z,101487.69
2022-10-03T02:22:34.167Z,101487.94
2022-10-03T02:25:55.243Z,101486.31
2022-10-03T02:29:23.619Z,101491.72
2022-10-03T02:32:54.653Z,101495.38
2022-10-03T02:36:26.440Z,101479.41
2022-10-03T02:40:17.467Z,101484.44
2022-10-03T02:43:43.488Z,101482.13
2022-10-03T02:47:09.635Z,101486.94
2022-10-03T02:50:42.453Z,101494.09
2022-10-03T02:54:08.979Z,101488.72
2022-10-03T02:57:32.851Z,101498.00
2022-10-03T03:01:16.151Z,101502.00
2022-10-03T03:04:45.525Z,101500.28
2022-10-03T03:08:15.059Z,101515.78
2022-10-03T03:11:56.442Z,101507.94
2022-10-03T03:15:47.528Z,101518.44
2022-10-03T03:19:04.776Z,101511.13
2022-10-03T03:22:21.509Z,101512.16
2022-10-03T03:26:08.980Z,101513.00
2022-10-03T03:29:22.575Z,101526.00
2022-10-03T03:32:38.007Z,101518.41
2022-10-03T03:35:55.370Z,101525.28
2022-10-03T03:39:09.690Z,101528.69
2022-10-03T03:42:43.208Z,101520.69
2022-10-03T03:46:00.658Z,101537.28
2022-10-03T03:49:24.024Z,101533.75
2022-10-03T03:52:45.255Z,101535.91
2022-10-03T03:56:17.516Z,101529.50
2022-10-03T03:59:34.430Z,101545.44
2022-10-03T04:02:53.841Z,101543.06
2022-10-03T04:06:12.703Z,101547.38
2022-10-03T04:09:32.140Z,101549.97
2022-10-03T04:13:18.555Z,101551.97
2022-10-03T04:17:02.631Z,101558.97
2022-10-03T04:20:20.054Z,101562.75
2022-10-03T04:23:36.663Z,101561.81
2022-10-03T04:26:59.686Z,101552.59
2022-10-03T04:30:10.003Z,101564.09
2022-10-03T04:33:26.229Z,101560.34
2022-10-03T04:36:57.138Z,101556.19
2022-10-03T04:40:18.812Z,101565.97
2022-10-03T04:43:34.879Z,101559.19
2022-10-03T04:46:44.453Z,101569.00
2022-10-03T04:49:53.717Z,101566.59
2022-10-03T04:53:16.515Z,101565.28
2022-10-03T04:56:34.848Z,101561.19
2022-10-03T04:59:47.446Z,101564.31
2022-10-03T05:03:00.433Z,101571.00
2022-10-03T05:06:11.357Z,101577.50
2022-10-03T05:09:24.732Z,101580.22
2022-10-03T05:12:44.569Z,101587.22
2022-10-03T05:15:56.295Z,101577.81
2022-10-03T05:19:16.488Z,101578.44
2022-10-03T05:22:28.910Z,101585.97
2022-10-03T05:25:45.681Z,101587.25
2022-10-03T05:28:56.904Z,101587.25
2022-10-03T05:32:15.966Z,101595.25
2022-10-03T05:35:35.003Z,101605.78
2022-10-03T05:39:01.187Z,101601.22
2022-10-03T05:42:40.472Z,101603.75
2022-10-03T05:45:50.426Z,101598.75
2022-10-03T05:49:03.928Z,101609.41
2022-10-03T05:52:23.867Z,101609.00
2022-10-03T05:55:52.417Z,101608.75
2022-10-03T05:59:28.260Z,101622.16
2022-10-03T06:02:53.005Z,101623.22
2022-10-03T06:06:20.636Z,101621.28
2022-10-03T06:09:44.060Z,101634.47
2022-10-03T06:13:05.268Z,101642.84
2022-10-03T06:16:24.955Z,101646.25
2022-10-03T06:19:41.703Z,101647.94
2022-10-03T06:23:09.095Z,101652.53
2022-10-03T06:26:41.556Z,101654.50
2022-10-03T06:30:05.486Z,101663.94
2022-10-03T06:33:52.529Z,101656.72
2022-10-03T06:37:20.681Z,101654.81
2022-10-03T06:41:08.423Z,101671.41
2022-10-03T06:44:29.731Z,101659.94
2022-10-03T06:47:51.458Z,101669.59
2022-10-03T06:51:18.670Z,101664.34
2022-10-03T06:54:53.931Z,101670.50
2022-10-03T06:58:30.178Z,101669.41
2022-10-03T07:02:24.998Z,101666.88
2022-10-03T07:05:55.001Z,101681.59
2022-10-03T07:09:30.206Z,101693.25
2022-10-03T07:12:59.516Z,101693.78
2022-10-03T07:16:41.477Z,101705.53
2022-10-03T07:20:17.415Z,101700.00
2022-10-03T07:23:35.519Z,101705.47
2022-10-03T07:27:10.786Z,101704.94
2022-10-03T07:30:18.501Z,101706.22
2022-10-03T07:33:48.385Z,101707.22
2022-10-03T07:37:28.651Z,101704.31
2022-10-03T07:41:12.884Z,101707.00
2022-10-03T07:44:46.121Z,101709.97
2022-10-03T07:48:17.305Z,101706.56
2022-10-03T07:51:30.478Z,101709.09
2022-10-03T07:55:02.918Z,101723.09
2022-10-03T07:58:24.339Z,101733.00
2022-10-03T08:01:59.916Z,101721.81
2022-10-03T08:05:20.292Z,101737.09
2022-10-03T08:09:08.667Z,101742.19
2022-10-03T08:12:33.503Z,101737.97
2022-10-03T08:15:57.127Z,101751.13
2022-10-03T08:19:23.713Z,101758.22
2022-10-03T08:22:45.580Z,101748.84
2022-10-03T08:26:01.625Z,101757.56
2022-10-03T08:29:30.477Z,101757.25
2022-10-03T08:32:50.027Z,101762.03
2022-10-03T08:36:30.035Z,101764.28
2022-10-03T08:39:54.159Z,101767.66
2022-10-03T08:43:44.185Z,101766.03
2022-10-03T08:47:07.322Z,101762.91
2022-10-03T08:50:24.558Z,101771.00
2022-10-03T08:53:56.542Z,101771.69
2022-10-03T08:57:19.055Z,101770.31
2022-10-03T09:00:23.460Z,101773.69
2022-10-03T09:04:05.141Z,101781.06
2022-10-03T09:07:35.941Z,101770.38
2022-10-03T09:11:04.864Z,101774.13
2022-10-03T09:14:41.444Z,101779.09
2022-10-03T09:18:29.916Z,101777.59
2022-10-03T09:21:59.101Z,101778.66
2022-10-03T09:25:19.744Z,101782.03
2022-10-03T09:28:48.001Z,101783.59
2022-10-03T09:32:29.074Z,101774.50
2022-10-03T09:35:54.835Z,101776.91
2022-10-03T09:39:09.678Z,101772.44
2022-10-03T09:42:36.526Z,101786.16
2022-10-03T09:46:15.607Z,101783.09
2022-10-03T09:49:47.260Z,101779.13
2022-10-03T09:53:15.693Z,101785.63
2022-10-03T09:56:50.093Z,101786.25
2022-10-03T10:00:03.712Z,101791.31
2022-10-03T10:03:41.195Z,101796.94
2022-10-03T10:07:12.507Z,101766.53
2022-10-03T10:10:49.750Z,101782.47
2022-10-03T10:14:16.263Z,101792.28
2022-10-03T10:17:57.462Z,101776.84
2022-10-03T10:21:43.446Z,101780.16
2022-10-03T10:25:09.289Z,101770.13
2022-10-03T10:28:48.409Z,101774.13
2022-10-03T10:32:34.549Z,101770.34
2022-10-03T10:36:11.749Z,101780.03
2022-10-03T10:39:49.845Z,101776.88
2022-10-03T10:43:24.982Z,101768.69
2022-10-03T10:46:55.812Z,101759.00
2022-10-03T10:50:29.622Z,101772.66
2022-10-03T10:54:17.827Z,101775.19
2022-10-03T10:57:40.459Z,101766.84
2022-10-03T11:01:27.946Z,101780.38
2022-10-03T11:05:07.314Z,101784.28
2022-10-03T11:08:51.700Z,101770.09
2022-10-03T11:12:34.852Z,101778.69
2022-10-03T11:16:12.826Z,101784.69
2022-10-03T11:19:54.178Z,101785.00
2022-10-03T11:23:34.192Z,101785.31
2022-10-03T11:27:38.346Z,101778.13
2022-10-03T11:31:38.237Z,101794.06
2022-10-03T11:35:13.131Z,101782.91
2022-10-03T11:38:22.386Z,101784.97
2022-10-03T11:41:40.304Z,101791.66
2022-10-03T11:44:47.596Z,101802.47
2022-10-03T11:48:02.709Z,101785.84
2022-10-03T11:51:15.532Z,101785.00
2022-10-03T11:54:31.500Z,101786.63
2022-10-03T11:57:37.922Z,101791.34
2022-10-03T12:00:44.762Z,101788.06
2022-10-03T12:03:55.162Z,101776.09
2022-10-03T12:07:30.298Z,101783.38
2022-10-03T12:10:47.871Z,101772.63
2022-10-03T12:14:15.005Z,101775.41
2022-10-03T12:17:26.821Z,101764.00
2022-10-03T12:20:41.064Z,101773.59
2022-10-03T12:24:03.541Z,101762.34
2022-10-03T12:27:17.091Z,101762.69
2022-10-03T12:30:21.463Z,101758.50
2022-10-03T12:33:42.752Z,101755.09
2022-10-03T12:36:53.234Z,101761.56
2022-10-03T12:40:06.011Z,101765.75
2022-10-03T12:43:27.278Z,101756.31
2022-10-03T12:46:40.196Z,101762.38
2022-10-03T12:49:53.950Z,101751.81
2022-10-03T12:53:18.494Z,101739.91
2022-10-03T12:56:33.410Z,101751.84
2022-10-03T12:59:42.293Z,101756.31
2022-10-03T13:02:55.751Z,101747.97
2022-10-03T13:06:44.573Z,101742.41
2022-10-03T13:10:00.711Z,101751.59
2022-10-03T13:13:21.129Z,101746.03
2022-10-03T13:16:29.989Z,101748.00
2022-10-03T13:19:44.621Z,101754.91
2022-10-03T13:22:55.266Z,101755.19
2022-10-03T13:26:12.689Z,101760.69
2022-10-03T13:29:26.397Z,101762.94
2022-10-03T13:32:36.106Z,101753.53
2022-10-03T13:35:59.787Z,101754.03
2022-10-03T13:39:16.251Z,101756.47
2022-10-03T13:42:29.358Z,101760.44
2022-10-03T13:45:34.542Z,101757.69
2022-10-03T13:48:38.061Z,101755.19
2022-10-03T13:51:52.782Z,101759.84
2022-10-03T13:55:17.921Z,101772.00
2022-10-03T13:58:32.684Z,101773.59
2022-10-03T14:01:47.096Z,101763.03
2022-10-03T14:05:08.440Z,101763.91
2022-10-03T14:08:20.532Z,101772.22
2022-10-03T14:11:34.825Z,101761.88
2022-10-03T14:14:56.845Z,101761.69
2022-10-03T14:18:13.108Z,101757.59
2022-10-03T14:21:41.745Z,101752.06
2022-10-03T14:24:59.069Z,101752.38
2022-10-03T14:28:09.290Z,101752.91
2022-10-03T14:31:20.944Z,101754.84
2022-10-03T14:34:37.086Z,101751.50
2022-10-03T14:37:43.747Z,101760.91
2022-10-03T14:40:50.302Z,101759.81
2022-10-03T14:43:55.898Z,101753.69
2022-10-03T14:47:01.289Z,101757.81
2022-10-03T14:50:06.820Z,101757.50
2022-10-03T14:53:18.866Z,101758.59
2022-10-03T14:56:24.358Z,101737.84
2022-10-03T14:59:32.703Z,101745.47
2022-10-03T15:02:37.730Z,101741.84
2022-10-03T15:05:55.930Z,101738.91
2022-10-03T15:09:02.421Z,101745.81
2022-10-03T15:12:09.630Z,101740.59
2022-10-03T15:15:17.838Z,101737.16
2022-10-03T15:18:24.285Z,101736.59
2022-10-03T15:21:29.552Z,101731.06
2022-10-03T15:24:35.194Z,101737.97
2022-10-03T15:27:41.820Z,101740.47
2022-10-03T15:30:46.550Z,101745.38
2022-10-03T15:33:54.292Z,101743.38
2022-10-03T15:37:01.453Z,101746.97
2022-10-03T15:40:21.943Z,101744.13
2022-10-03T15:43:34.552Z,101742.19
2022-10-03T15:46:44.211Z,101740.84
2022-10-03T15:49:54.465Z,101735.56
2022-10-03T15:53:24.216Z,101755.44
2022-10-03T15:56:29.726Z,101743.22
2022-10-03T15:59:35.341Z,101749.00
2022-10-03T16:02:43.141Z,101745.34
2022-10-03T16:06:03.779Z,101741.56
2022-10-03T16:09:17.395Z,101749.22
2022-10-03T16:12:48.014Z,101759.44
2022-10-03T16:16:07.296Z,101759.63
2022-10-03T16:19:32.626Z,101754.63
2022-10-03T16:22:43.528Z,101751.22
2022-10-03T16:25:51.164Z,101752.84
2022-10-03T16:29:03.227Z,101757.44
2022-10-03T16:32:09.342Z,101754.63
2022-10-03T16:35:22.745Z,101748.06
2022-10-03T16:38:27.923Z,101744.28
2022-10-03T16:41:34.627Z,101750.97
2022-10-03T16:44:41.677Z,101752.66
2022-10-03T16:47:45.110Z,101746.13
2022-10-03T16:50:52.116Z,101736.72
2022-10-03T16:53:56.945Z,101742.44
2022-10-03T16:57:04.153Z,101738.22
2022-10-03T17:00:16.765Z,101730.81
2022-10-03T17:03:22.587Z,101739.78
2022-10-03T17:06:30.962Z,101745.59
2022-10-03T17:09:39.773Z,101748.44
2022-10-03T17:12:46.846Z,101749.38
2022-10-03T17:15:54.024Z,101762.38
2022-10-03T17:19:09.530Z,101755.66
2022-10-03T17:22:16.930Z,101759.56
2022-10-03T17:25:39.033Z,101758.41
2022-10-03T17:28:47.068Z,101750.13
2022-10-03T17:31:55.440Z,101757.84
2022-10-03T17:35:04.373Z,101746.53
2022-10-03T17:38:47.741Z,101757.66
2022-10-03T17:41:51.157Z,101758.19
2022-10-03T17:45:00.662Z,101763.34
2022-10-03T17:48:12.959Z,101761.50
2022-10-03T17:51:32.334Z,101756.25
2022-10-03T17:54:39.020Z,101764.19
2022-10-03T17:57:47.734Z,101764.44
2022-10-03T18:01:03.788Z,101760.78
2022-10-03T18:04:12.582Z,101762.41
2022-10-03T18:07:18.399Z,101759.66
2022-10-03T18:10:24.713Z,101760.72
2022-10-03T18:13:31.016Z,101768.03
2022-10-03T18:16:37.687Z,101755.78
2022-10-03T18:19:54.976Z,101757.72
2022-10-03T18:23:04.731Z,101746.06
2022-10-03T18:26:20.004Z,101755.53
2022-10-03T18:29:29.253Z,101755.78
2022-10-03T18:32:38.330Z,101755.53
2022-10-03T18:35:45.185Z,101751.25
2022-10-03T18:38:50.659Z,101750.63
2022-10-03T18:41:58.437Z,101760.47
2022-10-03T18:45:02.020Z,101757.88
2022-10-03T18:48:11.665Z,101758.16
2022-10-03T18:51:20.079Z,101748.78
2022-10-03T18:54:35.958Z,101755.97
2022-10-03T18:57:44.831Z,101752.13
2022-10-03T19:00:53.787Z,101751.59
2022-10-03T19:04:01.820Z,101753.22
2022-10-03T19:07:16.994Z,101752.19
2022-10-03T19:10:31.732Z,101754.69
2022-10-03T19:13:45.475Z,101753.84
2022-10-03T19:17:10.534Z,101752.75
2022-10-03T19:20:23.833Z,101764.22
2022-10-03T19:23:30.476Z,101766.16
2022-10-03T19:26:36.185Z,101760.53
2022-10-03T19:29:44.412Z,101762.16
2022-10-03T19:32:53.523Z,101759.63
2022-10-03T19:36:04.061Z,101772.22
2022-10-03T19:39:12.168Z,101764.56
2022-10-03T19:42:26.010Z,101768.38
2022-10-03T19:45:29.096Z,101769.66
2022-10-03T19:48:35.562Z,101765.06
2022-10-03T19:51:39.954Z,101767.34
2022-10-03T19:54:54.554Z,101765.47
2022-10-03T19:58:01.058Z,101764.56
2022-10-03T20:01:08.709Z,101764.31
2022-10-03T20:04:12.851Z,101760.03
2022-10-03T20:07:19.980Z,101764.47
2022-10-03T20:10:39.547Z,101762.97
2022-10-03T20:13:48.249Z,101765.66
2022-10-03T20:16:54.410Z,101761.81
2022-10-03T20:20:02.400Z,101761.22
2022-10-03T20:23:08.830Z,101749.97
2022-10-03T20:26:19.370Z,101757.72
2022-10-03T20:29:31.442Z,101754.03
2022-10-03T20:32:37.368Z,101753.03
2022-10-03T20:35:52.758Z,101753.28
2022-10-03T20:39:16.142Z,101755.31
2022-10-03T20:42:26.093Z,101756.66
2022-10-03T20:45:33.356Z,101760.94
2022-10-03T20:48:43.000Z,101767.06
2022-10-03T20:51:57.528Z,101766.38
2022-10-03T20:55:06.245Z,101766.13
2022-10-03T20:58:18.698Z,101773.25
2022-10-03T21:01:24.775Z,101767.28
2022-10-03T21:04:32.863Z,101770.88
2022-10-03T21:07:39.435Z,101776.16
2022-10-03T21:10:48.359Z,101763.69
2022-10-03T21:13:55.884Z,101759.47
2022-10-03T21:16:59.621Z,101762.28
2022-10-03T21:20:08.032Z,101760.88
2022-10-03T21:23:17.327Z,101768.97
2022-10-03T21:26:26.032Z,101767.06
2022-10-03T21:29:30.688Z,101763.44
2022-10-03T21:32:52.520Z,101768.03
2022-10-03T21:35:55.665Z,101763.13
2022-10-03T21:39:12.252Z,101763.59
2022-10-03T21:42:24.177Z,101752.56
2022-10-03T21:45:37.733Z,101750.72
2022-10-03T21:48:53.960Z,101759.63
2022-10-03T21:52:14.795Z,101761.66
2022-10-03T21:55:51.298Z,101755.63
2022-10-03T21:59:14.519Z,101758.19
2022-10-03T22:02:26.851Z,101751.72
2022-10-03T22:05:40.353Z,101757.19
2022-10-03T22:08:47.555Z,101748.19
2022-10-03T22:11:56.453Z,101746.75
2022-10-03T22:15:09.034Z,101737.72
2022-10-03T22:18:14.056Z,101741.31
2022-10-03T22:21:26.779Z,101741.88
2022-10-03T22:24:39.794Z,101739.72
2022-10-03T22:27:50.165Z,101734.81
2022-10-03T22:31:04.469Z,101743.91
2022-10-03T22:34:26.961Z,101738.41
2022-10-03T22:37:30.038Z,101731.69
2022-10-03T22:40:33.929Z,101736.56
2022-10-03T22:43:38.384Z,101734.91
2022-10-03T22:46:47.813Z,101733.19
2022-10-03T22:49:58.596Z,101728.78
2022-10-03T22:53:03.726Z,101725.59
2022-10-03T22:56:40.833Z,101736.00
2022-10-03T22:59:48.851Z,101732.63
2022-10-03T23:03:00.075Z,101725.34
2022-10-03T23:06:29.758Z,101727.94
2022-10-03T23:09:39.491Z,101727.84
2022-10-03T23:12:45.932Z,101727.47
2022-10-03T23:15:52.104Z,101725.53
2022-10-03T23:19:13.157Z,101726.63
2022-10-03T23:22:18.363Z,101725.16
2022-10-03T23:25:27.965Z,101729.88
2022-10-03T23:28:41.023Z,101732.22
2022-10-03T23:31:53.453Z,101734.06
2022-10-03T23:35:16.712Z,101736.16
2022-10-03T23:38:59.448Z,101743.81
2022-10-03T23:42:09.716Z,101748.81
2022-10-03T23:45:16.580Z,101752.34
2022-10-03T23:48:23.460Z,101752.25
2022-10-03T23:51:32.829Z,101751.16
2022-10-03T23:54:35.466Z,101749.91
2022-10-03T23:57:42.927Z,101751.22
